Terminal Aerodrome Forecast
Issued by NWS Atlanta, GA

Home | Current Version | Previous Version | Text Only | Print | Product List | Glossary On
Versions: 1 2 3 4 5 6 7 8 9 10 11 12 13 14 15 16 17 18 19 20 21 22
000
FTUS42 KFFC 280533
TAFCSG
TAF
KCSG 280533Z 2806/2906 VRB03KT P6SM SCT035 BKN080
     FM280900 VRB03KT 5SM BR VCSH BKN015
     FM281400 14003KT P6SM BKN025 PROB30 2818/2824 3SM -TSRA
      BKN030CB
     FM290000 14004KT P6SM BKN035
     FM290400 10003KT P6SM BKN050=

USA.gov is the U.S. government's official web portal to all federal, state and local government web resources and services.